Stations météo

réclame
Mon MeteoGroup
Barcelona, Espagne (8180): Température de l'air & dewpoint: 11.07.2018 13:00:00 - 17.07.2018 13:00:00 (CEST)Barcelona, Espagne (8180): Vitesse du vent & gusts: 11.07.2018 13:00:00 - 17.07.2018 13:00:00 (CEST)Barcelona, Espagne (8180): Direction du vent: 11.07.2018 13:00:00 - 17.07.2018 13:00:00 (CEST)Barcelona, Espagne (8180): Quantités de précipitations: 11.07.2018 13:00:00 - 17.07.2018 13:00:00 (CEST)
Date & Time tt [°C] td [°C] ff [km/h] ff [knt] fx [km/h] fx [knt] dd rr [mm]
17.07.2018 13:00:00 27,3 16,6 9 5 16 9 SSW 0,0
17.07.2018 12:00:00 27,3 16,6 12 6 28 15 SSW 0,0
17.07.2018 11:00:00 28,3 18,1 8 4 19 11 SSE 0,0
17.07.2018 10:00:00 26,5 17,9 10 5 21 11 NNE 0,0
17.07.2018 09:00:00 25,1 17,5 11 6 21 12 N 0,0
17.07.2018 08:00:00 24,0 18,4 10 5 19 10 N -
17.07.2018 07:00:00 22,7 18,7 9 5 18 10 N 0,0
17.07.2018 06:00:00 22,3 18,7 10 5 17 9 N 0,0
17.07.2018 05:00:00 22,6 19,6 7 4 16 9 N 0,0
17.07.2018 04:00:00 23,1 20,3 7 4 14 8 N 0,0
17.07.2018 03:00:00 23,1 20,6 10 5 21 11 NE 0,0
17.07.2018 02:00:00 23,4 20,5 13 7 21 11 ENE -
17.07.2018 01:00:00 23,5 20,9 13 7 24 13 ENE 0,0
17.07.2018 00:00:00 23,8 20,7 13 7 21 11 NE 0,0
16.07.2018 23:00:00 23,9 21,2 14 8 24 13 ENE 0,0
16.07.2018 22:00:00 24,2 21,7 10 6 14 8 E 0,0
16.07.2018 21:00:00 24,7 21,4 11 6 16 9 SE 0,0
16.07.2018 20:00:00 25,1 19,9 13 7 18 10 SSW -
16.07.2018 19:00:00 25,4 18,6 13 7 20 11 S 0,0
16.07.2018 18:00:00 25,7 18,2 20 11 24 13 SSW 0,0
16.07.2018 17:00:00 26,0 17,1 15 8 31 17 S 0,0
16.07.2018 16:00:00 24,9 18,3 21 11 32 18 S 0,0
16.07.2018 15:00:00 26,6 14,7 9 5 16 8 S 0,0
16.07.2018 14:00:00 25,3 13,9 5 3 27 14 N -
16.07.2018 13:00:00 23,5 15,0 14 8 45 24 N 0,0
16.07.2018 12:00:00 23,3 17,3 15 8 32 18 NNW 0,0
16.07.2018 11:00:00 20,7 16,6 12 6 29 16 NNW 0,2
16.07.2018 10:00:00 20,2 19,3 14 7 39 21 NNE 9,7
16.07.2018 09:00:00 23,7 22,5 23 13 29 16 E 0,1
16.07.2018 08:00:00 24,0 22,3 15 8 28 15 ENE -
16.07.2018 07:00:00 24,4 22,3 8 5 18 10 NNE 0,0
16.07.2018 06:00:00 24,3 22,6 3 2 12 6 ENE 0,0
16.07.2018 05:00:00 24,5 23,3 10 6 16 8 ESE 0,0
16.07.2018 04:00:00 24,8 23,6 5 3 11 6 NNE 0,0
16.07.2018 03:00:00 24,7 22,7 8 5 12 6 SE 0,0
16.07.2018 02:00:00 25,7 22,2 3 2 14 8 NE -
16.07.2018 01:00:00 25,3 23,3 7 4 14 8 SSW 0,0
16.07.2018 00:00:00 25,8 23,5 5 3 21 11 W 0,0
15.07.2018 23:00:00 25,7 23,9 11 6 23 12 WSW 0,0
15.07.2018 22:00:00 25,2 24,0 16 9 22 12 SSW 0,0
15.07.2018 21:00:00 25,5 23,9 10 5 19 10 SSW 0,0
15.07.2018 20:00:00 26,2 23,9 11 6 15 8 SSW -
15.07.2018 19:00:00 26,8 23,7 10 6 15 8 SSW 0,0
15.07.2018 18:00:00 28,1 24,1 9 5 19 11 S 0,0
15.07.2018 17:00:00 28,1 23,2 10 6 18 10 S 0,0
15.07.2018 16:00:00 28,0 23,2 12 6 17 9 S 0,0
15.07.2018 15:00:00 26,9 22,5 13 7 19 11 SSW 0,0
15.07.2018 14:00:00 27,2 23,2 13 7 18 10 S -
15.07.2018 13:00:00 27,3 23,3 11 6 17 9 S 0,0
15.07.2018 12:00:00 27,5 21,3 11 6 17 9 S 0,0
15.07.2018 11:00:00 28,8 18,2 9 5 12 6 SE 0,0
15.07.2018 10:00:00 27,3 16,9 9 5 14 7 E 0,0
15.07.2018 09:00:00 26,4 16,3 6 4 16 8 NE 0,0
15.07.2018 08:00:00 24,8 15,4 1 1 9 5 WNW -
15.07.2018 07:00:00 22,5 14,3 7 4 10 6 N 0,0
15.07.2018 06:00:00 23,0 14,5 3 2 7 4 N 0,0
15.07.2018 05:00:00 23,3 14,3 3 1 6 3 NNE 0,0
15.07.2018 04:00:00 24,0 14,4 3 2 5 3 NE 0,0
15.07.2018 03:00:00 24,3 15,3 3 2 4 2 E 0,0
15.07.2018 02:00:00 25,1 13,4 1 1 8 4 ENE -
15.07.2018 01:00:00 25,9 14,7 3 2 18 10 SW 0,0
15.07.2018 00:00:00 26,6 14,0 8 5 20 11 WSW 0,0
14.07.2018 23:00:00 26,6 15,3 8 4 17 9 WSW 0,0
14.07.2018 22:00:00 26,9 15,0 10 5 23 12 WSW 0,0
14.07.2018 21:00:00 27,4 14,7 13 7 24 13 SW 0,0
14.07.2018 20:00:00 28,2 16,8 15 8 24 13 SW -
14.07.2018 19:00:00 26,5 19,1 21 11 24 13 SSW 0,0
14.07.2018 18:00:00 26,6 20,2 16 9 21 12 SSW 0,0
14.07.2018 17:00:00 26,8 19,6 17 9 21 11 SSW 0,0
14.07.2018 16:00:00 27,6 18,3 11 6 17 9 SSW 0,0
14.07.2018 15:00:00 28,9 19,5 8 4 13 7 SE 0,0
14.07.2018 14:00:00 28,6 19,8 10 5 15 8 ESE -
14.07.2018 13:00:00 27,4 20,7 8 4 16 8 S 0,0
14.07.2018 12:00:00 28,2 20,7 11 6 17 9 SE 0,0
14.07.2018 11:00:00 27,2 20,1 9 5 15 8 S 0,0
14.07.2018 10:00:00 28,9 16,1 3 1 11 6 NNE 0,0
14.07.2018 09:00:00 26,5 16,7 3 1 11 6 N 0,0
14.07.2018 08:00:00 24,2 15,4 7 4 12 6 N -
14.07.2018 07:00:00 23,2 15,0 6 3 8 4 N 0,0
14.07.2018 06:00:00 23,6 15,1 3 2 14 7 N 0,0
14.07.2018 05:00:00 23,8 15,1 8 5 16 9 N 0,0
14.07.2018 04:00:00 24,3 15,0 8 5 15 8 N 0,0
14.07.2018 03:00:00 24,1 14,8 8 4 21 11 N 0,0
14.07.2018 02:00:00 24,8 14,2 9 5 14 7 N -
14.07.2018 01:00:00 24,6 16,3 6 3 8 5 NNE 0,0
14.07.2018 00:00:00 24,0 19,9 5 3 8 4 E 0,0
13.07.2018 23:00:00 24,2 17,0 5 3 13 7 ENE 0,0
13.07.2018 22:00:00 24,0 20,3 10 6 29 15 E 0,0
13.07.2018 21:00:00 24,3 19,1 10 6 14 8 E 0,0
13.07.2018 20:00:00 24,5 18,5 14 7 19 10 E -
13.07.2018 19:00:00 24,9 20,2 13 7 21 11 E 0,0
13.07.2018 18:00:00 25,7 19,6 10 5 17 9 E 0,0
13.07.2018 17:00:00 26,6 20,0 9 5 28 15 ESE 0,0
13.07.2018 16:00:00 24,9 20,4 25 13 28 15 ESE 0,0
13.07.2018 15:00:00 25,4 18,8 23 13 29 16 E 0,0
13.07.2018 14:00:00 25,9 18,8 20 11 23 12 E -
13.07.2018 13:00:00 27,0 18,8 14 8 17 9 E 0,0
13.07.2018 12:00:00 28,2 16,8 7 4 16 8 ESE 0,0
13.07.2018 11:00:00 28,6 16,2 8 4 14 7 SE 0,0
13.07.2018 10:00:00 27,5 15,5 8 4 16 9 NNE 0,0
13.07.2018 09:00:00 24,9 14,6 9 5 19 10 N 0,0
13.07.2018 08:00:00 23,7 14,7 10 6 21 12 N -
13.07.2018 07:00:00 22,7 14,2 13 7 22 12 N 0,0
13.07.2018 06:00:00 22,7 14,2 6 4 12 7 N 0,0
13.07.2018 05:00:00 22,7 13,8 8 5 14 8 N 0,0
13.07.2018 04:00:00 22,9 13,1 8 4 15 8 N 0,0
13.07.2018 03:00:00 23,1 12,4 6 3 16 8 N 0,0
13.07.2018 02:00:00 23,7 11,3 5 3 12 6 N -
13.07.2018 01:00:00 24,2 11,9 8 4 18 10 NE 0,0
13.07.2018 00:00:00 23,9 15,4 13 7 21 12 ENE 0,0
12.07.2018 23:00:00 23,6 18,9 17 9 23 13 ENE 0,0
12.07.2018 22:00:00 23,5 19,4 20 11 26 14 E 0,0
12.07.2018 21:00:00 23,6 18,9 21 12 26 14 E 0,0
12.07.2018 20:00:00 24,1 18,1 21 11 32 18 E -
12.07.2018 19:00:00 24,6 18,8 28 15 33 18 E 0,0
12.07.2018 18:00:00 25,1 19,5 24 13 30 16 E 0,0
12.07.2018 17:00:00 25,4 19,3 22 12 26 14 E 0,0
12.07.2018 16:00:00 25,5 19,4 22 12 29 16 E 0,0
12.07.2018 15:00:00 25,5 19,4 22 12 29 16 E 0,0
12.07.2018 14:00:00 26,1 20,2 23 12 31 17 E -
12.07.2018 13:00:00 26,0 20,1 26 14 31 17 ESE 0,0
12.07.2018 12:00:00 25,7 19,1 25 14 29 16 ESE 0,0
12.07.2018 11:00:00 27,0 18,5 13 7 19 10 ESE 0,0
12.07.2018 10:00:00 25,9 16,7 15 8 21 12 E 0,0
12.07.2018 09:00:00 26,1 17,2 8 5 14 7 NNE 0,0
12.07.2018 08:00:00 24,0 17,5 6 3 16 9 N -
12.07.2018 07:00:00 22,9 17,8 10 6 19 11 N 0,0
12.07.2018 06:00:00 23,3 17,8 10 5 23 12 N 0,0
12.07.2018 05:00:00 23,6 17,1 6 3 13 7 N 0,0
12.07.2018 04:00:00 23,8 18,9 9 5 11 6 NE 0,0
12.07.2018 03:00:00 23,8 19,7 2 1 13 7 E 0,0
12.07.2018 02:00:00 24,0 19,3 14 7 21 11 E -
12.07.2018 01:00:00 24,1 20,1 14 8 18 10 E 0,0
12.07.2018 00:00:00 24,4 19,5 12 7 17 9 E 0,0
11.07.2018 23:00:00 24,6 19,6 12 7 19 11 E 0,0
11.07.2018 22:00:00 24,7 20,0 16 9 24 13 E 0,0
11.07.2018 21:00:00 25,2 20,0 14 8 21 11 ESE 0,0
11.07.2018 20:00:00 25,3 19,2 18 10 24 13 SSW -
11.07.2018 19:00:00 25,5 19,4 12 7 19 10 SSW 0,0
11.07.2018 18:00:00 27,0 19,6 13 7 25 13 S 0,0
11.07.2018 17:00:00 26,8 19,1 19 10 26 14 S 0,0
11.07.2018 16:00:00 27,3 19,1 17 9 25 13 S 0,0
11.07.2018 15:00:00 28,5 22,0 6 4 14 8 SE 0,0
11.07.2018 14:00:00 28,3 22,1 9 5 12 6 SE -
11.07.2018 13:00:00 28,2 23,1 9 5 13 7 SE 0,0

tt = Température de l'air
td = dewpoint
ff = Vitesse du vent
fx = gusts
dd = Direction du vent
rr = Quantités de précipitations

stations d'obs. à proximité